sensor_id;sensor_type;location;lat;lon;timestamp;temperature;humidity
51841;DHT22;37888;53.246;6.658;2023-07-20T02:52:40;13.50;99.90
51841;DHT22;37888;53.246;6.658;2023-07-20T02:55:18;13.40;99.90
51841;DHT22;37888;53.246;6.658;2023-07-20T02:57:45;13.40;99.90
51841;DHT22;37888;53.246;6.658;2023-07-20T03:00:17;13.40;99.90
51841;DHT22;37888;53.246;6.658;2023-07-20T03:02:49;13.40;99.90
51841;DHT22;37888;53.246;6.658;2023-07-20T03:05:26;13.40;99.90
51841;DHT22;37888;53.246;6.658;2023-07-20T03:08:36;13.30;99.90
51841;DHT22;37888;53.246;6.658;2023-07-20T03:11:16;13.40;99.90
51841;DHT22;37888;53.246;6.658;2023-07-20T03:13:48;13.30;99.90
51841;DHT22;37888;53.246;6.658;2023-07-20T03:16:41;13.30;99.90
51841;DHT22;37888;53.246;6.658;2023-07-20T03:19:14;13.30;99.90
51841;DHT22;37888;53.246;6.658;2023-07-20T03:21:52;13.30;99.90
51841;DHT22;37888;53.246;6.658;2023-07-20T03:24:20;13.30;99.90
51841;DHT22;37888;53.246;6.658;2023-07-20T03:26:55;13.30;99.90
51841;DHT22;37888;53.246;6.658;2023-07-20T03:29:49;13.30;99.90
51841;DHT22;37888;53.246;6.658;2023-07-20T03:32:17;13.80;99.90
51841;DHT22;37888;53.246;6.658;2023-07-20T03:34:48;13.30;99.90
51841;DHT22;37888;53.246;6.658;2023-07-20T03:37:19;13.30;99.90
51841;DHT22;37888;53.246;6.658;2023-07-20T03:39:45;13.30;99.90
51841;DHT22;37888;53.246;6.658;2023-07-20T03:42:20;13.30;99.90
51841;DHT22;37888;53.246;6.658;2023-07-20T03:44:46;13.30;99.90
51841;DHT22;37888;53.246;6.658;2023-07-20T03:47:25;13.20;99.90
51841;DHT22;37888;53.246;6.658;2023-07-20T03:49:54;13.30;99.90
51841;DHT22;37888;53.246;6.658;2023-07-20T03:52:29;13.20;99.90
51841;DHT22;37888;53.246;6.658;2023-07-20T03:55:05;13.10;99.90
51841;DHT22;37888;53.246;6.658;2023-07-20T03:57:31;13.20;99.90
51841;DHT22;37888;53.246;6.658;2023-07-20T04:00:01;13.30;99.90
51841;DHT22;37888;53.246;6.658;2023-07-20T04:02:35;12.70;99.90
51841;DHT22;37888;53.246;6.658;2023-07-20T04:05:15;13.20;99.90
51841;DHT22;37888;53.246;6.658;2023-07-20T04:07:41;13.10;99.90
51841;DHT22;37888;53.246;6.658;2023-07-20T04:10:08;13.20;99.90
51841;DHT22;37888;53.246;6.658;2023-07-20T04:12:43;13.30;99.90
51841;DHT22;37888;53.246;6.658;2023-07-20T04:15:18;13.20;99.90
51841;DHT22;37888;53.246;6.658;2023-07-20T04:17:47;13.30;99.90
51841;DHT22;37888;53.246;6.658;2023-07-20T07:10:51;23.10;96.30
51841;DHT22;37888;53.246;6.658;2023-07-20T07:18:18;23.60;96.20
51841;DHT22;37888;53.246;6.658;2023-07-20T07:21:22;23.80;94.60
51841;DHT22;37888;53.246;6.658;2023-07-20T07:24:29;23.70;90.60
51841;DHT22;37888;53.246;6.658;2023-07-20T07:33:54;23.40;92.40
51841;DHT22;37888;53.246;6.658;2023-07-20T07:39:54;23.30;92.80
51841;DHT22;37888;53.246;6.658;2023-07-20T07:43:46;23.60;94.50
51841;DHT22;37888;53.246;6.658;2023-07-20T07:51:04;23.60;92.90
51841;DHT22;37888;53.246;6.658;2023-07-20T15:07:57;19.10;99.90
51841;DHT22;37888;53.246;6.658;2023-07-20T15:10:23;19.20;99.90
51841;DHT22;37888;53.246;6.658;2023-07-20T15:12:54;19.20;99.90
51841;DHT22;37888;53.246;6.658;2023-07-20T15:15:19;19.30;99.90
51841;DHT22;37888;53.246;6.658;2023-07-20T15:17:45;19.40;99.90
51841;DHT22;37888;53.246;6.658;2023-07-20T15:20:12;19.50;99.90
51841;DHT22;37888;53.246;6.658;2023-07-20T15:22:39;19.50;99.90
51841;DHT22;37888;53.246;6.658;2023-07-20T15:25:09;19.50;99.90
51841;DHT22;37888;53.246;6.658;2023-07-20T15:27:37;19.50;99.90
51841;DHT22;37888;53.246;6.658;2023-07-20T15:30:03;19.50;99.90
51841;DHT22;37888;53.246;6.658;2023-07-20T15:32:29;19.50;99.90
51841;DHT22;37888;53.246;6.658;2023-07-20T15:34:55;19.30;99.90
51841;DHT22;37888;53.246;6.658;2023-07-20T15:37:21;19.10;99.90
51841;DHT22;37888;53.246;6.658;2023-07-20T15:39:50;19.00;99.90
51841;DHT22;37888;53.246;6.658;2023-07-20T15:42:16;18.90;99.90
51841;DHT22;37888;53.246;6.658;2023-07-20T15:44:43;18.80;99.90
51841;DHT22;37888;53.246;6.658;2023-07-20T15:47:12;18.80;99.90
51841;DHT22;37888;53.246;6.658;2023-07-20T15:49:38;18.70;99.90
51841;DHT22;37888;53.246;6.658;2023-07-20T15:52:06;18.70;99.90
51841;DHT22;37888;53.246;6.658;2023-07-20T15:54:31;18.60;99.90
51841;DHT22;37888;53.246;6.658;2023-07-20T15:56:57;18.60;99.90
51841;DHT22;37888;53.246;6.658;2023-07-20T15:59:23;18.70;99.90
51841;DHT22;37888;53.246;6.658;2023-07-20T16:01:49;18.70;99.90
51841;DHT22;37888;53.246;6.658;2023-07-20T16:04:15;18.70;99.90
51841;DHT22;37888;53.246;6.658;2023-07-20T16:06:41;18.70;99.90
51841;DHT22;37888;53.246;6.658;2023-07-20T16:09:09;18.80;99.90
51841;DHT22;37888;53.246;6.658;2023-07-20T16:11:35;18.90;99.90
51841;DHT22;37888;53.246;6.658;2023-07-20T16:14:01;19.00;99.90
51841;DHT22;37888;53.246;6.658;2023-07-20T16:16:31;19.00;99.90
51841;DHT22;37888;53.246;6.658;2023-07-20T16:18:57;19.10;99.90
51841;DHT22;37888;53.246;6.658;2023-07-20T16:21:23;19.00;99.90
51841;DHT22;37888;53.246;6.658;2023-07-20T16:23:50;19.00;99.90
51841;DHT22;37888;53.246;6.658;2023-07-20T16:26:16;19.10;99.90
51841;DHT22;37888;53.246;6.658;2023-07-20T16:28:42;19.10;99.90
51841;DHT22;37888;53.246;6.658;2023-07-20T16:31:15;19.00;99.90
51841;DHT22;37888;53.246;6.658;2023-07-20T16:33:43;19.00;99.90
51841;DHT22;37888;53.246;6.658;2023-07-20T16:36:15;19.10;99.90
51841;DHT22;37888;53.246;6.658;2023-07-20T16:38:41;19.00;99.90
51841;DHT22;37888;53.246;6.658;2023-07-20T16:41:08;19.00;99.90
51841;DHT22;37888;53.246;6.658;2023-07-20T16:43:35;18.90;99.90
51841;DHT22;37888;53.246;6.658;2023-07-20T16:46:02;18.80;99.90
51841;DHT22;37888;53.246;6.658;2023-07-20T16:48:29;18.90;99.90
51841;DHT22;37888;53.246;6.658;2023-07-20T16:50:59;18.90;99.90
51841;DHT22;37888;53.246;6.658;2023-07-20T16:53:25;19.00;99.90
51841;DHT22;37888;53.246;6.658;2023-07-20T16:55:53;19.10;99.90
51841;DHT22;37888;53.246;6.658;2023-07-20T16:58:23;19.20;99.90
51841;DHT22;37888;53.246;6.658;2023-07-20T17:00:50;19.20;99.90
51841;DHT22;37888;53.246;6.658;2023-07-20T17:03:16;19.20;99.90
51841;DHT22;37888;53.246;6.658;2023-07-20T17:05:43;19.10;99.90
51841;DHT22;37888;53.246;6.658;2023-07-20T17:08:09;19.10;99.90
51841;DHT22;37888;53.246;6.658;2023-07-20T17:10:36;19.20;99.90
51841;DHT22;37888;53.246;6.658;2023-07-20T17:13:05;19.20;99.90
51841;DHT22;37888;53.246;6.658;2023-07-20T17:15:32;19.20;99.90
51841;DHT22;37888;53.246;6.658;2023-07-20T17:17:58;19.20;99.90
51841;DHT22;37888;53.246;6.658;2023-07-20T17:20:42;19.20;99.90
51841;DHT22;37888;53.246;6.658;2023-07-20T17:23:57;19.20;99.90
51841;DHT22;37888;53.246;6.658;2023-07-20T17:30:00;19.30;99.90
51841;DHT22;37888;53.246;6.658;2023-07-20T17:32:26;19.20;99.90
51841;DHT22;37888;53.246;6.658;2023-07-20T17:34:52;19.20;99.90
51841;DHT22;37888;53.246;6.658;2023-07-20T17:37:34;19.20;99.90
51841;DHT22;37888;53.246;6.658;2023-07-20T17:40:13;19.10;99.90
51841;DHT22;37888;53.246;6.658;2023-07-20T17:42:42;19.10;99.90
51841;DHT22;37888;53.246;6.658;2023-07-20T17:45:08;19.10;99.90
51841;DHT22;37888;53.246;6.658;2023-07-20T17:48:04;19.00;99.90
51841;DHT22;37888;53.246;6.658;2023-07-20T17:51:01;19.00;99.90
51841;DHT22;37888;53.246;6.658;2023-07-20T18:09:56;18.70;99.90
51841;DHT22;37888;53.246;6.658;2023-07-20T18:12:23;18.70;99.90
51841;DHT22;37888;53.246;6.658;2023-07-20T18:14:51;18.60;99.90
51841;DHT22;37888;53.246;6.658;2023-07-20T19:06:23;17.20;99.90
51841;DHT22;37888;53.246;6.658;2023-07-20T19:46:46;16.30;99.90
51841;DHT22;37888;53.246;6.658;2023-07-20T20:00:47;16.00;99.90
51841;DHT22;37888;53.246;6.658;2023-07-20T20:34:20;15.50;99.90
51841;DHT22;37888;53.246;6.658;2023-07-20T20:37:29;15.30;99.90
51841;DHT22;37888;53.246;6.658;2023-07-20T20:40:51;15.30;99.90
51841;DHT22;37888;53.246;6.658;2023-07-20T20:43:32;15.30;99.90
51841;DHT22;37888;53.246;6.658;2023-07-20T20:50:00;15.40;99.90
51841;DHT22;37888;53.246;6.658;2023-07-20T20:53:05;15.20;99.90
51841;DHT22;37888;53.246;6.658;2023-07-20T20:55:48;15.20;99.90
51841;DHT22;37888;53.246;6.658;2023-07-20T20:58:28;15.00;99.90
51841;DHT22;37888;53.246;6.658;2023-07-20T21:01:06;15.30;99.90
51841;DHT22;37888;53.246;6.658;2023-07-20T21:03:38;15.10;99.90
51841;DHT22;37888;53.246;6.658;2023-07-20T21:19:45;15.20;99.90
51841;DHT22;37888;53.246;6.658;2023-07-20T21:22:56;15.10;99.90
51841;DHT22;37888;53.246;6.658;2023-07-20T21:26:35;15.20;99.90
51841;DHT22;37888;53.246;6.658;2023-07-20T21:29:45;15.20;99.90
51841;DHT22;37888;53.246;6.658;2023-07-20T21:39:26;15.20;99.90
51841;DHT22;37888;53.246;6.658;2023-07-20T21:42:18;15.10;99.90
51841;DHT22;37888;53.246;6.658;2023-07-20T21:45:29;15.20;99.90
51841;DHT22;37888;53.246;6.658;2023-07-20T21:51:55;15.20;99.90
51841;DHT22;37888;53.246;6.658;2023-07-20T21:55:26;15.10;99.90
51841;DHT22;37888;53.246;6.658;2023-07-20T21:58:10;14.70;99.90
51841;DHT22;37888;53.246;6.658;2023-07-20T22:04:31;14.90;99.90
51841;DHT22;37888;53.246;6.658;2023-07-20T22:24:28;14.70;99.90
51841;DHT22;37888;53.246;6.658;2023-07-20T22:27:57;14.40;99.90
51841;DHT22;37888;53.246;6.658;2023-07-20T22:31:53;14.50;99.90
51841;DHT22;37888;53.246;6.658;2023-07-20T22:34:31;14.60;99.90
51841;DHT22;37888;53.246;6.658;2023-07-20T22:38:17;14.10;99.90
51841;DHT22;37888;53.246;6.658;2023-07-20T22:41:50;13.80;99.90
51841;DHT22;37888;53.246;6.658;2023-07-20T22:48:46;14.30;99.90
51841;DHT22;37888;53.246;6.658;2023-07-20T22:51:31;13.90;99.90
51841;DHT22;37888;53.246;6.658;2023-07-20T22:58:44;14.10;99.90
51841;DHT22;37888;53.246;6.658;2023-07-20T23:07:52;14.20;99.90
51841;DHT22;37888;53.246;6.658;2023-07-20T23:10:36;14.20;99.90
51841;DHT22;37888;53.246;6.658;2023-07-20T23:13:16;14.20;99.90
51841;DHT22;37888;53.246;6.658;2023-07-20T23:16:38;14.20;99.90
51841;DHT22;37888;53.246;6.658;2023-07-20T23:19:30;14.20;99.90
51841;DHT22;37888;53.246;6.658;2023-07-20T23:22:18;14.20;99.90
51841;DHT22;37888;53.246;6.658;2023-07-20T23:24:57;14.20;99.90
51841;DHT22;37888;53.246;6.658;2023-07-20T23:27:56;14.20;99.90
51841;DHT22;37888;53.246;6.658;2023-07-20T23:30:53;14.10;99.90
51841;DHT22;37888;53.246;6.658;2023-07-20T23:33:51;14.10;99.90
51841;DHT22;37888;53.246;6.658;2023-07-20T23:36:33;14.10;99.90
51841;DHT22;37888;53.246;6.658;2023-07-20T23:39:24;14.00;99.90
51841;DHT22;37888;53.246;6.658;2023-07-20T23:42:04;14.00;99.90
51841;DHT22;37888;53.246;6.658;2023-07-20T23:44:54;13.90;99.90
51841;DHT22;37888;53.246;6.658;2023-07-20T23:47:42;13.90;99.90
51841;DHT22;37888;53.246;6.658;2023-07-20T23:53:12;14.50;99.90
51841;DHT22;37888;53.246;6.658;2023-07-20T23:56:24;13.30;99.90
51841;DHT22;37888;53.246;6.658;2023-07-20T23:59:29;13.90;99.90
